sensor_id;sensor_type;location;lat;lon;timestamp;temperature;humidity
71237;DHT22;58984;51.960;5.582;2023-12-28T00:02:06;14.20;65.10
71237;DHT22;58984;51.960;5.582;2023-12-28T00:04:32;14.20;65.20
71237;DHT22;58984;51.960;5.582;2023-12-28T00:07:01;14.20;65.20
71237;DHT22;58984;51.960;5.582;2023-12-28T00:09:27;14.20;65.20
71237;DHT22;58984;51.960;5.582;2023-12-28T00:11:53;14.20;65.30
71237;DHT22;58984;51.960;5.582;2023-12-28T00:14:18;14.20;65.30
71237;DHT22;58984;51.960;5.582;2023-12-28T00:16:44;14.30;65.40
71237;DHT22;58984;51.960;5.582;2023-12-28T00:19:10;14.30;65.40
71237;DHT22;58984;51.960;5.582;2023-12-28T00:21:35;14.30;65.50
71237;DHT22;58984;51.960;5.582;2023-12-28T00:24:01;14.30;65.50
71237;DHT22;58984;51.960;5.582;2023-12-28T00:26:27;14.30;65.50
71237;DHT22;58984;51.960;5.582;2023-12-28T00:28:52;14.30;65.50
71237;DHT22;58984;51.960;5.582;2023-12-28T00:31:18;14.30;65.60
71237;DHT22;58984;51.960;5.582;2023-12-28T00:33:44;14.30;65.70
71237;DHT22;58984;51.960;5.582;2023-12-28T00:36:09;14.30;65.60
71237;DHT22;58984;51.960;5.582;2023-12-28T00:38:35;14.30;65.70
71237;DHT22;58984;51.960;5.582;2023-12-28T00:41:00;14.30;65.70
71237;DHT22;58984;51.960;5.582;2023-12-28T00:43:26;14.30;65.80
71237;DHT22;58984;51.960;5.582;2023-12-28T00:45:52;14.30;65.80
71237;DHT22;58984;51.960;5.582;2023-12-28T00:48:17;14.30;65.80
71237;DHT22;58984;51.960;5.582;2023-12-28T00:50:43;14.30;65.90
71237;DHT22;58984;51.960;5.582;2023-12-28T00:53:08;14.30;65.80
71237;DHT22;58984;51.960;5.582;2023-12-28T00:55:34;14.40;66.00
71237;DHT22;58984;51.960;5.582;2023-12-28T00:58:00;14.30;65.90
71237;DHT22;58984;51.960;5.582;2023-12-28T01:00:25;14.30;66.00
71237;DHT22;58984;51.960;5.582;2023-12-28T01:02:51;14.40;66.20
71237;DHT22;58984;51.960;5.582;2023-12-28T01:05:17;14.40;66.20
71237;DHT22;58984;51.960;5.582;2023-12-28T01:07:42;14.40;66.00
71237;DHT22;58984;51.960;5.582;2023-12-28T01:10:08;14.30;66.10
71237;DHT22;58984;51.960;5.582;2023-12-28T01:12:34;14.40;66.20
71237;DHT22;58984;51.960;5.582;2023-12-28T01:14:59;14.40;66.20
71237;DHT22;58984;51.960;5.582;2023-12-28T01:17:25;14.40;66.30
71237;DHT22;58984;51.960;5.582;2023-12-28T01:19:51;14.40;66.20
71237;DHT22;58984;51.960;5.582;2023-12-28T01:22:16;14.40;66.20
71237;DHT22;58984;51.960;5.582;2023-12-28T01:24:42;14.40;66.20
71237;DHT22;58984;51.960;5.582;2023-12-28T01:27:07;14.40;66.20
71237;DHT22;58984;51.960;5.582;2023-12-28T01:29:33;14.40;66.20
71237;DHT22;58984;51.960;5.582;2023-12-28T01:31:59;14.40;66.30
71237;DHT22;58984;51.960;5.582;2023-12-28T01:34:25;14.40;66.20
71237;DHT22;58984;51.960;5.582;2023-12-28T01:36:51;14.40;66.20
71237;DHT22;58984;51.960;5.582;2023-12-28T01:39:16;14.40;66.30
71237;DHT22;58984;51.960;5.582;2023-12-28T01:41:44;14.40;66.20
71237;DHT22;58984;51.960;5.582;2023-12-28T01:44:10;14.40;66.20
71237;DHT22;58984;51.960;5.582;2023-12-28T01:46:36;14.40;66.20
71237;DHT22;58984;51.960;5.582;2023-12-28T01:49:03;14.40;66.30
71237;DHT22;58984;51.960;5.582;2023-12-28T01:51:30;14.40;66.30
71237;DHT22;58984;51.960;5.582;2023-12-28T01:53:57;14.40;66.30
71237;DHT22;58984;51.960;5.582;2023-12-28T01:56:23;14.40;66.30
71237;DHT22;58984;51.960;5.582;2023-12-28T01:58:50;14.40;66.30
71237;DHT22;58984;51.960;5.582;2023-12-28T02:01:17;14.40;66.30
71237;DHT22;58984;51.960;5.582;2023-12-28T02:03:44;14.40;67.10
71237;DHT22;58984;51.960;5.582;2023-12-28T02:06:10;14.40;66.40
71237;DHT22;58984;51.960;5.582;2023-12-28T02:08:36;14.40;66.40
71237;DHT22;58984;51.960;5.582;2023-12-28T02:11:01;14.40;66.40
71237;DHT22;58984;51.960;5.582;2023-12-28T02:13:27;14.40;66.40
71237;DHT22;58984;51.960;5.582;2023-12-28T02:16:13;14.50;66.50
71237;DHT22;58984;51.960;5.582;2023-12-28T02:18:44;14.40;66.40
71237;DHT22;58984;51.960;5.582;2023-12-28T02:21:13;14.40;66.30
71237;DHT22;58984;51.960;5.582;2023-12-28T02:23:39;14.50;66.50
71237;DHT22;58984;51.960;5.582;2023-12-28T02:26:05;14.50;66.50
71237;DHT22;58984;51.960;5.582;2023-12-28T02:28:30;14.50;66.40
71237;DHT22;58984;51.960;5.582;2023-12-28T02:30:56;14.50;66.40
71237;DHT22;58984;51.960;5.582;2023-12-28T02:33:35;14.50;66.40
71237;DHT22;58984;51.960;5.582;2023-12-28T02:36:04;14.40;66.30
71237;DHT22;58984;51.960;5.582;2023-12-28T02:38:33;14.50;66.40
71237;DHT22;58984;51.960;5.582;2023-12-28T02:41:02;14.50;66.40
71237;DHT22;58984;51.960;5.582;2023-12-28T02:43:28;14.50;66.40
71237;DHT22;58984;51.960;5.582;2023-12-28T02:45:54;14.40;66.30
71237;DHT22;58984;51.960;5.582;2023-12-28T02:48:20;14.40;66.40
71237;DHT22;58984;51.960;5.582;2023-12-28T02:50:46;14.40;66.30
71237;DHT22;58984;51.960;5.582;2023-12-28T02:53:12;14.40;66.40
71237;DHT22;58984;51.960;5.582;2023-12-28T02:55:38;14.50;66.40
71237;DHT22;58984;51.960;5.582;2023-12-28T02:58:03;14.50;66.40
71237;DHT22;58984;51.960;5.582;2023-12-28T03:00:29;14.50;66.40
71237;DHT22;58984;51.960;5.582;2023-12-28T03:02:55;14.40;66.30
71237;DHT22;58984;51.960;5.582;2023-12-28T03:05:21;14.50;66.40
71237;DHT22;58984;51.960;5.582;2023-12-28T03:07:46;14.40;66.40
71237;DHT22;58984;51.960;5.582;2023-12-28T03:10:12;14.40;66.40
71237;DHT22;58984;51.960;5.582;2023-12-28T03:12:38;14.40;66.40
71237;DHT22;58984;51.960;5.582;2023-12-28T03:15:04;14.50;66.50
71237;DHT22;58984;51.960;5.582;2023-12-28T03:17:30;14.40;66.30
71237;DHT22;58984;51.960;5.582;2023-12-28T03:19:58;14.50;66.50
71237;DHT22;58984;51.960;5.582;2023-12-28T03:22:24;14.50;66.50
71237;DHT22;58984;51.960;5.582;2023-12-28T03:24:50;14.50;66.50
71237;DHT22;58984;51.960;5.582;2023-12-28T03:27:16;14.40;66.30
71237;DHT22;58984;51.960;5.582;2023-12-28T03:29:42;14.50;66.50
71237;DHT22;58984;51.960;5.582;2023-12-28T03:32:08;14.50;66.50
71237;DHT22;58984;51.960;5.582;2023-12-28T03:34:34;14.50;66.50
71237;DHT22;58984;51.960;5.582;2023-12-28T03:37:00;14.40;66.40
71237;DHT22;58984;51.960;5.582;2023-12-28T03:39:26;14.40;66.50
71237;DHT22;58984;51.960;5.582;2023-12-28T03:41:52;14.40;66.50
71237;DHT22;58984;51.960;5.582;2023-12-28T03:44:19;14.50;66.70
71237;DHT22;58984;51.960;5.582;2023-12-28T03:46:47;14.50;66.70
71237;DHT22;58984;51.960;5.582;2023-12-28T03:49:21;14.50;66.60
71237;DHT22;58984;51.960;5.582;2023-12-28T03:51:49;14.40;66.50
71237;DHT22;58984;51.960;5.582;2023-12-28T03:54:18;14.50;66.60
71237;DHT22;58984;51.960;5.582;2023-12-28T03:56:46;14.50;66.70
71237;DHT22;58984;51.960;5.582;2023-12-28T03:59:12;14.50;66.70
71237;DHT22;58984;51.960;5.582;2023-12-28T04:01:37;14.50;66.70
71237;DHT22;58984;51.960;5.582;2023-12-28T04:04:03;14.50;66.70
71237;DHT22;58984;51.960;5.582;2023-12-28T04:06:29;14.50;66.70
71237;DHT22;58984;51.960;5.582;2023-12-28T04:08:55;14.50;66.70
71237;DHT22;58984;51.960;5.582;2023-12-28T04:11:20;14.50;66.80
71237;DHT22;58984;51.960;5.582;2023-12-28T04:13:46;14.50;66.70
71237;DHT22;58984;51.960;5.582;2023-12-28T04:16:15;14.50;66.60
71237;DHT22;58984;51.960;5.582;2023-12-28T04:18:42;14.50;66.70
71237;DHT22;58984;51.960;5.582;2023-12-28T04:21:09;14.50;66.70
71237;DHT22;58984;51.960;5.582;2023-12-28T04:23:36;14.50;66.70
71237;DHT22;58984;51.960;5.582;2023-12-28T04:26:02;14.50;66.60
71237;DHT22;58984;51.960;5.582;2023-12-28T04:28:27;14.50;66.60
71237;DHT22;58984;51.960;5.582;2023-12-28T04:30:53;14.50;66.50
71237;DHT22;58984;51.960;5.582;2023-12-28T04:33:19;14.50;66.50
71237;DHT22;58984;51.960;5.582;2023-12-28T04:35:45;14.50;66.60
71237;DHT22;58984;51.960;5.582;2023-12-28T04:38:11;14.50;66.60
71237;DHT22;58984;51.960;5.582;2023-12-28T04:40:36;14.50;66.60
71237;DHT22;58984;51.960;5.582;2023-12-28T04:43:02;14.50;66.60
71237;DHT22;58984;51.960;5.582;2023-12-28T04:45:28;14.50;66.50
71237;DHT22;58984;51.960;5.582;2023-12-28T04:47:54;14.50;66.50
71237;DHT22;58984;51.960;5.582;2023-12-28T04:50:19;14.50;66.50
71237;DHT22;58984;51.960;5.582;2023-12-28T04:52:45;14.60;66.70
71237;DHT22;58984;51.960;5.582;2023-12-28T04:55:11;14.50;66.40
71237;DHT22;58984;51.960;5.582;2023-12-28T04:57:36;14.60;66.50
71237;DHT22;58984;51.960;5.582;2023-12-28T05:00:03;14.60;66.50
71237;DHT22;58984;51.960;5.582;2023-12-28T05:02:29;14.60;66.70
71237;DHT22;58984;51.960;5.582;2023-12-28T05:04:55;14.60;66.60
71237;DHT22;58984;51.960;5.582;2023-12-28T05:07:20;14.50;66.50
71237;DHT22;58984;51.960;5.582;2023-12-28T05:09:46;14.60;66.60
71237;DHT22;58984;51.960;5.582;2023-12-28T05:12:12;14.60;66.60
71237;DHT22;58984;51.960;5.582;2023-12-28T05:14:37;14.50;66.40
71237;DHT22;58984;51.960;5.582;2023-12-28T05:17:03;14.60;66.50
71237;DHT22;58984;51.960;5.582;2023-12-28T05:19:29;14.60;66.50
71237;DHT22;58984;51.960;5.582;2023-12-28T05:21:55;14.60;66.40
71237;DHT22;58984;51.960;5.582;2023-12-28T05:24:21;14.60;66.40
71237;DHT22;58984;51.960;5.582;2023-12-28T05:26:46;14.60;66.40
71237;DHT22;58984;51.960;5.582;2023-12-28T05:29:12;14.60;66.40
71237;DHT22;58984;51.960;5.582;2023-12-28T05:31:38;14.60;66.50
71237;DHT22;58984;51.960;5.582;2023-12-28T05:34:03;14.60;66.40
71237;DHT22;58984;51.960;5.582;2023-12-28T05:36:30;14.60;66.40
71237;DHT22;58984;51.960;5.582;2023-12-28T05:38:56;14.60;67.20
71237;DHT22;58984;51.960;5.582;2023-12-28T05:41:22;14.60;66.40
71237;DHT22;58984;51.960;5.582;2023-12-28T05:43:47;14.60;66.50
71237;DHT22;58984;51.960;5.582;2023-12-28T05:46:13;14.70;66.50
71237;DHT22;58984;51.960;5.582;2023-12-28T05:48:39;14.70;66.50
71237;DHT22;58984;51.960;5.582;2023-12-28T05:51:05;14.60;66.40
71237;DHT22;58984;51.960;5.582;2023-12-28T05:53:30;14.60;66.30
71237;DHT22;58984;51.960;5.582;2023-12-28T05:55:56;14.70;66.50
71237;DHT22;58984;51.960;5.582;2023-12-28T05:58:21;14.70;66.50
71237;DHT22;58984;51.960;5.582;2023-12-28T06:00:47;14.60;66.40
71237;DHT22;58984;51.960;5.582;2023-12-28T06:03:13;14.60;66.40
71237;DHT22;58984;51.960;5.582;2023-12-28T06:05:39;14.70;66.50
71237;DHT22;58984;51.960;5.582;2023-12-28T06:08:05;14.70;66.50
71237;DHT22;58984;51.960;5.582;2023-12-28T06:10:31;14.70;66.50
71237;DHT22;58984;51.960;5.582;2023-12-28T06:12:57;14.70;66.40
71237;DHT22;58984;51.960;5.582;2023-12-28T06:15:23;14.70;66.40
71237;DHT22;58984;51.960;5.582;2023-12-28T06:17:49;14.70;66.40
71237;DHT22;58984;51.960;5.582;2023-12-28T06:20:14;14.70;66.40
71237;DHT22;58984;51.960;5.582;2023-12-28T06:22:40;14.70;66.40
71237;DHT22;58984;51.960;5.582;2023-12-28T06:25:06;14.70;66.30
71237;DHT22;58984;51.960;5.582;2023-12-28T06:27:32;14.70;66.30
71237;DHT22;58984;51.960;5.582;2023-12-28T06:29:58;14.70;66.30
71237;DHT22;58984;51.960;5.582;2023-12-28T06:32:24;14.70;66.30
71237;DHT22;58984;51.960;5.582;2023-12-28T06:34:50;14.70;66.40
71237;DHT22;58984;51.960;5.582;2023-12-28T06:37:16;14.70;66.50
71237;DHT22;58984;51.960;5.582;2023-12-28T06:39:41;14.70;66.50
71237;DHT22;58984;51.960;5.582;2023-12-28T06:42:07;14.80;66.40
71237;DHT22;58984;51.960;5.582;2023-12-28T06:44:33;14.70;66.10
71237;DHT22;58984;51.960;5.582;2023-12-28T06:46:58;14.70;66.20
71237;DHT22;58984;51.960;5.582;2023-12-28T06:49:25;14.70;66.20
71237;DHT22;58984;51.960;5.582;2023-12-28T06:51:51;14.70;66.00
71237;DHT22;58984;51.960;5.582;2023-12-28T06:54:16;14.70;66.00
71237;DHT22;58984;51.960;5.582;2023-12-28T06:56:42;14.80;66.20
71237;DHT22;58984;51.960;5.582;2023-12-28T06:59:08;14.70;66.10
71237;DHT22;58984;51.960;5.582;2023-12-28T07:01:38;14.80;66.30
71237;DHT22;58984;51.960;5.582;2023-12-28T07:04:04;14.80;66.30
71237;DHT22;58984;51.960;5.582;2023-12-28T07:06:29;14.80;66.10
71237;DHT22;58984;51.960;5.582;2023-12-28T07:08:55;14.80;66.10
71237;DHT22;58984;51.960;5.582;2023-12-28T07:11:21;14.80;66.10
71237;DHT22;58984;51.960;5.582;2023-12-28T07:13:46;14.80;66.00
71237;DHT22;58984;51.960;5.582;2023-12-28T07:16:12;14.80;66.00
71237;DHT22;58984;51.960;5.582;2023-12-28T07:18:38;14.80;66.10
71237;DHT22;58984;51.960;5.582;2023-12-28T07:21:04;14.80;66.00
71237;DHT22;58984;51.960;5.582;2023-12-28T07:23:31;14.80;66.00
71237;DHT22;58984;51.960;5.582;2023-12-28T07:25:57;14.80;66.00
71237;DHT22;58984;51.960;5.582;2023-12-28T07:28:23;14.80;65.90
71237;DHT22;58984;51.960;5.582;2023-12-28T07:30:48;14.80;66.00
71237;DHT22;58984;51.960;5.582;2023-12-28T07:33:14;14.80;65.90
71237;DHT22;58984;51.960;5.582;2023-12-28T07:35:40;14.80;66.00
71237;DHT22;58984;51.960;5.582;2023-12-28T07:38:05;14.80;66.00
71237;DHT22;58984;51.960;5.582;2023-12-28T07:40:31;14.80;66.00
71237;DHT22;58984;51.960;5.582;2023-12-28T07:42:57;14.90;66.20
71237;DHT22;58984;51.960;5.582;2023-12-28T07:45:23;14.80;65.90
71237;DHT22;58984;51.960;5.582;2023-12-28T07:47:52;14.80;66.40
71237;DHT22;58984;51.960;5.582;2023-12-28T07:50:18;14.80;66.00
71237;DHT22;58984;51.960;5.582;2023-12-28T07:52:45;14.80;66.10
71237;DHT22;58984;51.960;5.582;2023-12-28T07:55:12;14.80;66.00
71237;DHT22;58984;51.960;5.582;2023-12-28T07:57:38;14.80;65.90
71237;DHT22;58984;51.960;5.582;2023-12-28T08:00:04;14.80;66.00
71237;DHT22;58984;51.960;5.582;2023-12-28T08:02:31;14.80;66.00
71237;DHT22;58984;51.960;5.582;2023-12-28T08:04:56;14.80;65.80
71237;DHT22;58984;51.960;5.582;2023-12-28T08:07:22;14.80;65.70
71237;DHT22;58984;51.960;5.582;2023-12-28T08:09:48;14.80;65.80
71237;DHT22;58984;51.960;5.582;2023-12-28T08:12:13;14.80;66.00
71237;DHT22;58984;51.960;5.582;2023-12-28T08:14:39;14.80;65.60
71237;DHT22;58984;51.960;5.582;2023-12-28T08:17:05;14.80;65.60
71237;DHT22;58984;51.960;5.582;2023-12-28T08:19:30;14.90;65.70
71237;DHT22;58984;51.960;5.582;2023-12-28T08:21:56;14.80;65.70
71237;DHT22;58984;51.960;5.582;2023-12-28T08:24:22;14.80;65.80
71237;DHT22;58984;51.960;5.582;2023-12-28T08:26:47;14.80;65.80
71237;DHT22;58984;51.960;5.582;2023-12-28T08:29:13;14.80;65.90
71237;DHT22;58984;51.960;5.582;2023-12-28T08:31:39;14.90;66.00
71237;DHT22;58984;51.960;5.582;2023-12-28T08:34:04;14.90;66.10
71237;DHT22;58984;51.960;5.582;2023-12-28T08:36:30;14.90;65.90
71237;DHT22;58984;51.960;5.582;2023-12-28T08:38:55;14.90;66.00
71237;DHT22;58984;51.960;5.582;2023-12-28T08:41:22;14.80;65.80
71237;DHT22;58984;51.960;5.582;2023-12-28T08:43:50;14.90;66.00
71237;DHT22;58984;51.960;5.582;2023-12-28T08:46:16;14.90;66.00
71237;DHT22;58984;51.960;5.582;2023-12-28T08:48:42;14.90;66.00
71237;DHT22;58984;51.960;5.582;2023-12-28T08:51:09;14.90;65.90
71237;DHT22;58984;51.960;5.582;2023-12-28T08:53:36;14.80;65.70
71237;DHT22;58984;51.960;5.582;2023-12-28T08:56:02;14.80;65.80
71237;DHT22;58984;51.960;5.582;2023-12-28T08:58:27;14.90;66.00
71237;DHT22;58984;51.960;5.582;2023-12-28T09:00:53;14.90;65.90
71237;DHT22;58984;51.960;5.582;2023-12-28T09:03:19;14.90;65.80
71237;DHT22;58984;51.960;5.582;2023-12-28T09:05:44;14.90;65.80
71237;DHT22;58984;51.960;5.582;2023-12-28T09:08:10;14.90;65.80
71237;DHT22;58984;51.960;5.582;2023-12-28T09:10:36;14.90;65.70
71237;DHT22;58984;51.960;5.582;2023-12-28T09:13:04;14.90;65.80
71237;DHT22;58984;51.960;5.582;2023-12-28T09:15:31;14.90;65.70
71237;DHT22;58984;51.960;5.582;2023-12-28T09:17:56;14.90;65.80
71237;DHT22;58984;51.960;5.582;2023-12-28T09:20:22;15.00;65.80
71237;DHT22;58984;51.960;5.582;2023-12-28T09:22:48;14.90;65.80
71237;DHT22;58984;51.960;5.582;2023-12-28T09:25:18;14.90;65.70
71237;DHT22;58984;51.960;5.582;2023-12-28T09:27:44;15.00;65.70
71237;DHT22;58984;51.960;5.582;2023-12-28T09:30:10;15.00;65.80
71237;DHT22;58984;51.960;5.582;2023-12-28T09:32:36;15.00;65.90
71237;DHT22;58984;51.960;5.582;2023-12-28T09:35:01;15.00;65.90
71237;DHT22;58984;51.960;5.582;2023-12-28T09:37:27;15.00;65.80
71237;DHT22;58984;51.960;5.582;2023-12-28T09:39:52;14.90;65.70
71237;DHT22;58984;51.960;5.582;2023-12-28T09:42:25;15.00;65.80
71237;DHT22;58984;51.960;5.582;2023-12-28T09:44:54;14.90;65.70
71237;DHT22;58984;51.960;5.582;2023-12-28T09:47:20;14.90;65.70
71237;DHT22;58984;51.960;5.582;2023-12-28T09:49:47;14.90;65.70
71237;DHT22;58984;51.960;5.582;2023-12-28T09:52:12;15.00;65.80
71237;DHT22;58984;51.960;5.582;2023-12-28T09:54:38;14.90;65.70
71237;DHT22;58984;51.960;5.582;2023-12-28T09:57:04;14.90;65.70
71237;DHT22;58984;51.960;5.582;2023-12-28T09:59:32;15.00;65.80
71237;DHT22;58984;51.960;5.582;2023-12-28T10:01:59;15.00;65.80
71237;DHT22;58984;51.960;5.582;2023-12-28T10:04:26;15.00;65.80
71237;DHT22;58984;51.960;5.582;2023-12-28T10:06:54;15.00;65.80
71237;DHT22;58984;51.960;5.582;2023-12-28T10:09:21;15.10;65.90
71237;DHT22;58984;51.960;5.582;2023-12-28T10:11:47;15.10;65.70
71237;DHT22;58984;51.960;5.582;2023-12-28T10:14:14;15.00;65.50
71237;DHT22;58984;51.960;5.582;2023-12-28T10:16:42;15.00;65.50
71237;DHT22;58984;51.960;5.582;2023-12-28T10:19:08;15.00;65.50
71237;DHT22;58984;51.960;5.582;2023-12-28T10:21:33;15.10;65.70
71237;DHT22;58984;51.960;5.582;2023-12-28T10:23:59;15.10;65.60
71237;DHT22;58984;51.960;5.582;2023-12-28T10:26:26;15.10;65.60
71237;DHT22;58984;51.960;5.582;2023-12-28T10:29:01;15.10;65.70
71237;DHT22;58984;51.960;5.582;2023-12-28T10:31:28;15.10;65.60
71237;DHT22;58984;51.960;5.582;2023-12-28T10:33:58;15.10;65.60
71237;DHT22;58984;51.960;5.582;2023-12-28T10:36:24;15.10;65.70
71237;DHT22;58984;51.960;5.582;2023-12-28T10:38:53;15.20;65.80
71237;DHT22;58984;51.960;5.582;2023-12-28T10:41:19;15.20;65.70
71237;DHT22;58984;51.960;5.582;2023-12-28T10:43:46;15.20;65.60
71237;DHT22;58984;51.960;5.582;2023-12-28T10:46:26;15.20;65.60
71237;DHT22;58984;51.960;5.582;2023-12-28T10:49:16;15.10;65.40
71237;DHT22;58984;51.960;5.582;2023-12-28T10:51:43;15.20;65.50
71237;DHT22;58984;51.960;5.582;2023-12-28T10:57:05;15.20;65.50
71237;DHT22;58984;51.960;5.582;2023-12-28T11:02:06;15.20;65.60
71237;DHT22;58984;51.960;5.582;2023-12-28T11:04:42;15.30;65.60
71237;DHT22;58984;51.960;5.582;2023-12-28T11:07:10;15.30;65.10
71237;DHT22;58984;51.960;5.582;2023-12-28T11:09:41;15.30;65.40
71237;DHT22;58984;51.960;5.582;2023-12-28T11:12:08;15.30;65.20
71237;DHT22;58984;51.960;5.582;2023-12-28T11:14:38;15.30;65.50
71237;DHT22;58984;51.960;5.582;2023-12-28T11:17:04;15.30;65.60
71237;DHT22;58984;51.960;5.582;2023-12-28T11:19:31;15.30;65.50
71237;DHT22;58984;51.960;5.582;2023-12-28T11:21:57;15.30;65.50
71237;DHT22;58984;51.960;5.582;2023-12-28T11:24:27;15.30;65.40
71237;DHT22;58984;51.960;5.582;2023-12-28T11:26:54;15.30;65.40
71237;DHT22;58984;51.960;5.582;2023-12-28T11:29:23;15.30;65.50
71237;DHT22;58984;51.960;5.582;2023-12-28T11:31:53;15.30;65.50
71237;DHT22;58984;51.960;5.582;2023-12-28T11:34:19;15.30;65.50
71237;DHT22;58984;51.960;5.582;2023-12-28T11:36:52;15.30;65.60
71237;DHT22;58984;51.960;5.582;2023-12-28T11:39:33;15.30;65.50
71237;DHT22;58984;51.960;5.582;2023-12-28T11:42:03;15.30;65.30
71237;DHT22;58984;51.960;5.582;2023-12-28T11:44:37;15.40;65.40
71237;DHT22;58984;51.960;5.582;2023-12-28T11:47:21;15.30;65.30
71237;DHT22;58984;51.960;5.582;2023-12-28T11:49:46;15.30;65.40
71237;DHT22;58984;51.960;5.582;2023-12-28T11:52:24;15.40;65.50
71237;DHT22;58984;51.960;5.582;2023-12-28T11:54:50;15.40;65.10
71237;DHT22;58984;51.960;5.582;2023-12-28T11:57:16;15.40;65.30
71237;DHT22;58984;51.960;5.582;2023-12-28T11:59:42;15.40;65.50
71237;DHT22;58984;51.960;5.582;2023-12-28T12:02:08;15.40;65.50
71237;DHT22;58984;51.960;5.582;2023-12-28T12:04:34;15.40;65.50
71237;DHT22;58984;51.960;5.582;2023-12-28T12:07:04;15.40;65.50
71237;DHT22;58984;51.960;5.582;2023-12-28T12:09:29;15.40;65.40
71237;DHT22;58984;51.960;5.582;2023-12-28T12:12:03;15.40;65.40
71237;DHT22;58984;51.960;5.582;2023-12-28T12:14:29;15.40;65.50
71237;DHT22;58984;51.960;5.582;2023-12-28T12:16:56;15.40;65.50
71237;DHT22;58984;51.960;5.582;2023-12-28T12:19:25;15.40;65.50
71237;DHT22;58984;51.960;5.582;2023-12-28T12:21:54;15.40;65.50
71237;DHT22;58984;51.960;5.582;2023-12-28T12:24:20;15.30;65.20
71237;DHT22;58984;51.960;5.582;2023-12-28T12:26:46;15.40;65.40
71237;DHT22;58984;51.960;5.582;2023-12-28T12:29:12;15.40;65.30
71237;DHT22;58984;51.960;5.582;2023-12-28T12:31:40;15.40;65.40
71237;DHT22;58984;51.960;5.582;2023-12-28T12:34:08;15.40;65.60
71237;DHT22;58984;51.960;5.582;2023-12-28T12:36:34;15.40;65.20
71237;DHT22;58984;51.960;5.582;2023-12-28T12:39:00;15.40;65.10
71237;DHT22;58984;51.960;5.582;2023-12-28T12:41:26;15.40;65.30
71237;DHT22;58984;51.960;5.582;2023-12-28T12:43:52;15.50;65.20
71237;DHT22;58984;51.960;5.582;2023-12-28T12:46:21;15.50;65.20
71237;DHT22;58984;51.960;5.582;2023-12-28T12:49:00;15.50;65.30
71237;DHT22;58984;51.960;5.582;2023-12-28T12:51:28;15.40;65.40
71237;DHT22;58984;51.960;5.582;2023-12-28T12:54:01;15.40;65.10
71237;DHT22;58984;51.960;5.582;2023-12-28T12:56:31;15.40;65.20
71237;DHT22;58984;51.960;5.582;2023-12-28T12:58:58;15.50;65.40
71237;DHT22;58984;51.960;5.582;2023-12-28T13:01:24;15.50;65.40
71237;DHT22;58984;51.960;5.582;2023-12-28T13:03:52;15.50;65.30
71237;DHT22;58984;51.960;5.582;2023-12-28T13:06:18;15.40;65.20
71237;DHT22;58984;51.960;5.582;2023-12-28T13:08:47;15.40;65.20
71237;DHT22;58984;51.960;5.582;2023-12-28T13:11:13;15.50;65.20
71237;DHT22;58984;51.960;5.582;2023-12-28T13:13:39;15.50;65.20
71237;DHT22;58984;51.960;5.582;2023-12-28T13:16:04;15.50;65.00
71237;DHT22;58984;51.960;5.582;2023-12-28T13:18:30;15.50;65.10
71237;DHT22;58984;51.960;5.582;2023-12-28T13:20:57;15.50;65.10
71237;DHT22;58984;51.960;5.582;2023-12-28T13:23:23;15.50;65.10
71237;DHT22;58984;51.960;5.582;2023-12-28T13:25:49;15.50;65.10
71237;DHT22;58984;51.960;5.582;2023-12-28T13:28:14;15.50;65.10
71237;DHT22;58984;51.960;5.582;2023-12-28T13:30:40;15.50;65.00
71237;DHT22;58984;51.960;5.582;2023-12-28T13:33:06;15.50;65.10
71237;DHT22;58984;51.960;5.582;2023-12-28T13:35:32;15.50;64.90
71237;DHT22;58984;51.960;5.582;2023-12-28T13:37:59;15.50;65.00
71237;DHT22;58984;51.960;5.582;2023-12-28T13:40:27;15.50;64.90
71237;DHT22;58984;51.960;5.582;2023-12-28T13:42:52;15.50;65.00
71237;DHT22;58984;51.960;5.582;2023-12-28T13:45:18;15.50;64.90
71237;DHT22;58984;51.960;5.582;2023-12-28T13:47:43;15.50;64.90
71237;DHT22;58984;51.960;5.582;2023-12-28T13:50:10;15.50;65.00
71237;DHT22;58984;51.960;5.582;2023-12-28T13:52:36;15.50;65.10
71237;DHT22;58984;51.960;5.582;2023-12-28T13:55:02;15.50;64.70
71237;DHT22;58984;51.960;5.582;2023-12-28T13:57:27;15.50;64.80
71237;DHT22;58984;51.960;5.582;2023-12-28T13:59:53;15.50;64.80
71237;DHT22;58984;51.960;5.582;2023-12-28T14:02:19;15.50;62.40
71237;DHT22;58984;51.960;5.582;2023-12-28T14:04:47;15.40;63.10
71237;DHT22;58984;51.960;5.582;2023-12-28T14:07:12;15.40;63.70
71237;DHT22;58984;51.960;5.582;2023-12-28T14:09:38;15.50;64.00
71237;DHT22;58984;51.960;5.582;2023-12-28T14:12:04;15.50;64.00
71237;DHT22;58984;51.960;5.582;2023-12-28T14:14:30;15.50;64.20
71237;DHT22;58984;51.960;5.582;2023-12-28T14:16:55;15.50;64.40
71237;DHT22;58984;51.960;5.582;2023-12-28T14:19:21;15.60;64.50
71237;DHT22;58984;51.960;5.582;2023-12-28T14:21:47;15.60;64.60
71237;DHT22;58984;51.960;5.582;2023-12-28T14:24:13;15.60;64.50
71237;DHT22;58984;51.960;5.582;2023-12-28T14:26:42;15.60;64.40
71237;DHT22;58984;51.960;5.582;2023-12-28T14:29:09;15.50;64.20
71237;DHT22;58984;51.960;5.582;2023-12-28T14:31:36;15.60;64.20
71237;DHT22;58984;51.960;5.582;2023-12-28T14:34:01;15.60;64.50
71237;DHT22;58984;51.960;5.582;2023-12-28T14:36:34;15.60;64.40
71237;DHT22;58984;51.960;5.582;2023-12-28T14:39:04;15.60;64.30
71237;DHT22;58984;51.960;5.582;2023-12-28T14:41:37;15.60;64.30
71237;DHT22;58984;51.960;5.582;2023-12-28T14:44:03;15.60;64.30
71237;DHT22;58984;51.960;5.582;2023-12-28T14:46:29;15.60;64.50
71237;DHT22;58984;51.960;5.582;2023-12-28T14:48:55;15.60;64.50
71237;DHT22;58984;51.960;5.582;2023-12-28T14:51:21;15.60;64.60
71237;DHT22;58984;51.960;5.582;2023-12-28T14:53:47;15.60;64.50
71237;DHT22;58984;51.960;5.582;2023-12-28T14:56:13;15.60;64.50
71237;DHT22;58984;51.960;5.582;2023-12-28T14:58:40;15.60;64.50
71237;DHT22;58984;51.960;5.582;2023-12-28T15:01:10;15.60;64.50
71237;DHT22;58984;51.960;5.582;2023-12-28T15:03:36;15.60;64.50
71237;DHT22;58984;51.960;5.582;2023-12-28T15:06:04;15.60;64.50
71237;DHT22;58984;51.960;5.582;2023-12-28T15:08:30;15.60;64.40
71237;DHT22;58984;51.960;5.582;2023-12-28T15:10:56;15.60;64.40
71237;DHT22;58984;51.960;5.582;2023-12-28T15:13:22;15.60;64.50
71237;DHT22;58984;51.960;5.582;2023-12-28T15:15:48;15.50;64.40
71237;DHT22;58984;51.960;5.582;2023-12-28T15:18:16;15.60;64.50
71237;DHT22;58984;51.960;5.582;2023-12-28T15:20:44;15.60;64.50
71237;DHT22;58984;51.960;5.582;2023-12-28T15:23:10;15.60;64.50
71237;DHT22;58984;51.960;5.582;2023-12-28T15:25:36;15.60;64.50
71237;DHT22;58984;51.960;5.582;2023-12-28T15:28:01;15.50;64.40
71237;DHT22;58984;51.960;5.582;2023-12-28T15:30:27;15.60;64.50
71237;DHT22;58984;51.960;5.582;2023-12-28T15:32:53;15.50;64.20